createdAt,value
2018-05-02T00:00:19.925Z,2.20
2018-05-02T00:01:19.833Z,2.00
2018-05-02T00:02:19.734Z,1.90
2018-05-02T00:03:19.637Z,2.20
2018-05-02T00:04:19.585Z,2.20
2018-05-02T00:05:19.446Z,1.90
2018-05-02T00:06:19.350Z,1.90
2018-05-02T00:07:19.256Z,1.90
2018-05-02T00:08:19.157Z,1.90
2018-05-02T00:09:19.092Z,2.00
2018-05-02T00:10:18.965Z,1.90
2018-05-02T00:11:18.927Z,1.70
2018-05-02T00:12:18.774Z,1.80
2018-05-02T00:13:18.683Z,1.80
2018-05-02T00:14:18.614Z,1.80
2018-05-02T00:15:18.483Z,1.80
2018-05-02T00:16:18.390Z,1.90
2018-05-02T00:17:18.295Z,1.80
2018-05-02T00:18:18.196Z,2.30
2018-05-02T00:19:18.132Z,2.40
2018-05-02T00:20:18.004Z,2.10
2018-05-02T00:21:17.988Z,2.00
2018-05-02T00:22:17.816Z,1.90
2018-05-02T00:23:17.730Z,1.90
2018-05-02T00:24:17.652Z,2.00
2018-05-02T00:25:17.522Z,1.90
2018-05-02T00:26:17.426Z,2.10
2018-05-02T00:27:17.333Z,2.00
2018-05-02T00:28:17.243Z,2.10
2018-05-02T00:29:17.171Z,2.10
2018-05-02T00:30:17.043Z,2.10
2018-05-02T00:31:16.949Z,2.00
2018-05-02T00:32:16.852Z,1.80
2018-05-02T00:33:16.771Z,1.90
2018-05-02T00:34:16.666Z,2.00
2018-05-02T00:35:16.594Z,1.90
2018-05-02T00:36:16.470Z,2.60
2018-05-02T00:37:16.379Z,2.80
2018-05-02T00:38:16.282Z,3.20
2018-05-02T00:39:16.186Z,3.40
2018-05-02T00:40:16.120Z,4.30
2018-05-02T00:41:15.991Z,4.10
2018-05-02T00:42:15.900Z,4.30
2018-05-02T00:43:15.802Z,4.80
2018-05-02T00:44:15.708Z,4.30
2018-05-02T00:45:15.643Z,4.10
2018-05-02T00:46:15.516Z,4.40
2018-05-02T00:47:15.420Z,5.10
2018-05-02T00:48:15.324Z,5.20
2018-05-02T00:49:15.229Z,4.80
2018-05-02T00:50:15.163Z,5.00
2018-05-02T00:51:15.041Z,3.60
2018-05-02T00:52:14.941Z,3.90
2018-05-02T00:53:14.847Z,3.10
2018-05-02T00:54:14.753Z,2.30
2018-05-02T00:55:14.685Z,3.30
2018-05-02T00:56:14.559Z,3.50
2018-05-02T00:57:14.465Z,2.80
2018-05-02T00:58:14.371Z,2.30
2018-05-02T00:59:14.276Z,2.50
2018-05-02T01:00:14.209Z,2.40
2018-05-02T01:01:14.087Z,2.00
2018-05-02T01:02:13.988Z,1.90
2018-05-02T01:03:13.911Z,1.80
2018-05-02T01:04:13.801Z,1.80
2018-05-02T01:05:13.735Z,1.70
2018-05-02T01:06:13.608Z,1.70
2018-05-02T01:07:13.514Z,1.70
2018-05-02T01:08:13.416Z,1.70
2018-05-02T01:09:13.324Z,1.50
2018-05-02T01:10:13.259Z,1.60
2018-05-02T01:11:13.131Z,1.80
2018-05-02T01:12:13.039Z,1.80
2018-05-02T01:13:12.956Z,2.80
2018-05-02T01:14:12.849Z,2.60
2018-05-02T01:15:12.781Z,3.50
2018-05-02T01:16:12.656Z,3.20
2018-05-02T01:17:12.561Z,3.60
2018-05-02T01:18:12.565Z,3.20
2018-05-02T01:19:12.374Z,2.90
2018-05-02T01:20:12.317Z,3.20
2018-05-02T01:21:12.183Z,3.00
2018-05-02T01:22:12.088Z,3.10
2018-05-02T01:23:12.004Z,2.80
2018-05-02T01:24:11.905Z,2.80
2018-05-02T01:25:11.936Z,2.90
2018-05-02T01:26:11.706Z,2.90
2018-05-02T01:27:11.613Z,2.60
2018-05-02T01:28:11.519Z,2.90
2018-05-02T01:29:11.423Z,2.70
2018-05-02T01:30:11.358Z,2.70
2018-05-02T01:31:11.233Z,2.70
2018-05-02T01:32:11.235Z,2.50
2018-05-02T01:33:11.043Z,2.90
2018-05-02T01:34:10.951Z,2.70
2018-05-02T01:35:10.886Z,2.30
2018-05-02T01:36:10.757Z,2.70
2018-05-02T01:37:10.661Z,2.50
2018-05-02T01:38:10.571Z,2.30
2018-05-02T01:39:10.568Z,2.10
2018-05-02T01:40:10.411Z,2.10
2018-05-02T01:41:10.290Z,1.80
2018-05-02T01:42:10.190Z,1.50
2018-05-02T01:43:10.096Z,1.60
2018-05-02T01:44:09.999Z,1.50
2018-05-02T01:45:09.936Z,1.60
2018-05-02T01:46:09.908Z,1.70
2018-05-02T01:47:09.716Z,1.30
2018-05-02T01:48:09.623Z,1.70
2018-05-02T01:49:09.526Z,1.50
2018-05-02T01:50:09.438Z,1.50
2018-05-02T01:51:09.373Z,1.40
2018-05-02T01:52:09.246Z,1.30
2018-05-02T01:53:09.260Z,1.80
2018-05-02T01:54:09.053Z,1.40
2018-05-02T01:55:08.957Z,1.50
2018-05-02T01:56:08.895Z,1.40
2018-05-02T01:57:08.769Z,1.50
2018-05-02T01:58:08.675Z,1.40
2018-05-02T01:59:08.584Z,1.50
2018-05-02T02:00:08.676Z,1.50
2018-05-02T02:01:08.394Z,1.50
2018-05-02T02:02:08.327Z,1.50
2018-05-02T02:03:08.215Z,1.90
2018-05-02T02:04:08.112Z,2.10
2018-05-02T02:05:08.014Z,2.10
2018-05-02T02:06:07.917Z,2.20
2018-05-02T02:07:07.958Z,2.40
2018-05-02T02:08:07.730Z,2.20
2018-05-02T02:09:07.633Z,2.60
2018-05-02T02:10:07.540Z,2.50
2018-05-02T02:11:07.444Z,2.60
2018-05-02T02:12:07.350Z,2.60
2018-05-02T02:13:07.292Z,2.30
2018-05-02T02:14:07.275Z,2.60
2018-05-02T02:15:07.065Z,2.40
2018-05-02T02:16:06.974Z,2.20
2018-05-02T02:17:06.879Z,2.30
2018-05-02T02:18:06.818Z,2.50
2018-05-02T02:19:06.688Z,2.50
2018-05-02T02:20:06.595Z,2.30
2018-05-02T02:21:06.596Z,2.40
2018-05-02T02:22:06.407Z,2.40
2018-05-02T02:23:06.344Z,2.30
2018-05-02T02:24:06.216Z,2.10
2018-05-02T02:25:06.123Z,2.10
2018-05-02T02:26:06.026Z,2.30
2018-05-02T02:27:05.932Z,2.30
2018-05-02T02:28:05.841Z,2.30
2018-05-02T02:29:05.774Z,2.00
2018-05-02T02:30:05.648Z,2.40
2018-05-02T02:31:05.555Z,2.00
2018-05-02T02:32:05.467Z,2.20
2018-05-02T02:33:05.363Z,2.20
2018-05-02T02:34:05.338Z,2.30
2018-05-02T02:35:05.273Z,2.20
2018-05-02T02:36:05.082Z,2.20
2018-05-02T02:37:04.984Z,2.40
2018-05-02T02:38:04.890Z,2.10
2018-05-02T02:39:04.797Z,2.00
2018-05-02T02:40:04.729Z,2.30
2018-05-02T02:41:04.604Z,2.20
2018-05-02T02:42:04.511Z,1.90
2018-05-02T02:43:04.415Z,2.10
2018-05-02T02:44:04.321Z,2.30
2018-05-02T02:45:04.258Z,2.30
2018-05-02T02:46:04.132Z,2.80
2018-05-02T02:47:04.036Z,4.90
2018-05-02T02:48:03.943Z,22.80
2018-05-02T02:49:03.845Z,3.60
2018-05-02T02:50:03.791Z,2.40
2018-05-02T02:51:03.657Z,2.40
2018-05-02T02:52:03.561Z,2.30
2018-05-02T02:53:03.467Z,2.50
2018-05-02T02:54:03.372Z,2.30
2018-05-02T02:55:03.291Z,2.30
2018-05-02T02:56:03.214Z,2.20
2018-05-02T02:57:03.090Z,2.40
2018-05-02T02:58:02.993Z,2.50
2018-05-02T02:59:02.899Z,2.40
2018-05-02T03:00:02.804Z,2.70
2018-05-02T03:01:02.743Z,2.50
2018-05-02T03:02:02.616Z,2.60
2018-05-02T03:03:02.518Z,2.70
2018-05-02T03:04:02.425Z,2.50
2018-05-02T03:05:02.328Z,2.30
2018-05-02T03:06:02.233Z,2.60
2018-05-02T03:07:02.175Z,2.30
2018-05-02T03:08:02.043Z,2.30
2018-05-02T03:09:01.948Z,2.50
2018-05-02T03:10:01.853Z,2.60
2018-05-02T03:11:01.759Z,2.30
2018-05-02T03:12:01.710Z,2.50
2018-05-02T03:13:01.585Z,2.30
2018-05-02T03:14:01.472Z,2.40
2018-05-02T03:15:01.381Z,2.50
2018-05-02T03:16:01.291Z,2.40
2018-05-02T03:17:01.225Z,2.30
2018-05-02T03:18:01.097Z,2.30
2018-05-02T03:19:00.999Z,2.20
2018-05-02T03:20:00.902Z,2.40
2018-05-02T03:21:00.811Z,2.30
2018-05-02T03:22:00.716Z,2.20
2018-05-02T03:23:00.650Z,2.20
2018-05-02T03:24:00.526Z,2.30
2018-05-02T03:25:00.431Z,2.30
2018-05-02T03:26:00.336Z,2.20
2018-05-02T03:27:00.254Z,2.40
2018-05-02T03:28:00.170Z,2.30
2018-05-02T03:29:00.047Z,2.50
2018-05-02T03:29:59.952Z,2.30
2018-05-02T03:30:59.858Z,2.30
2018-05-02T03:31:59.759Z,2.00
2018-05-02T03:32:59.710Z,2.20
2018-05-02T03:33:59.575Z,2.20
2018-05-02T03:34:59.479Z,2.40
2018-05-02T03:35:59.382Z,2.10
2018-05-02T03:36:59.287Z,2.10
2018-05-02T03:37:59.193Z,2.20
2018-05-02T03:38:59.124Z,2.20
2018-05-02T03:39:59.001Z,2.00
2018-05-02T03:40:58.905Z,2.10
2018-05-02T03:41:58.813Z,2.20
2018-05-02T03:42:58.715Z,2.30
2018-05-02T03:43:58.653Z,2.30
2018-05-02T03:44:58.524Z,2.30
2018-05-02T03:45:58.430Z,2.20
2018-05-02T03:46:58.333Z,2.30
2018-05-02T03:47:58.241Z,1.80
2018-05-02T03:48:58.190Z,2.30
2018-05-02T03:49:58.050Z,2.20
2018-05-02T03:50:57.952Z,2.20
2018-05-02T03:51:57.856Z,2.20
2018-05-02T03:52:57.848Z,2.10
2018-05-02T03:53:57.669Z,2.40
2018-05-02T03:54:57.601Z,2.10
2018-05-02T03:55:57.484Z,2.40
2018-05-02T03:56:57.380Z,2.40
2018-05-02T03:57:57.296Z,2.80
2018-05-02T03:58:57.284Z,2.90
2018-05-02T03:59:57.126Z,2.40
2018-05-02T04:00:57.000Z,2.80
2018-05-02T04:01:56.905Z,3.30
2018-05-02T04:02:56.810Z,3.70
2018-05-02T04:03:56.718Z,3.50
2018-05-02T04:04:56.623Z,3.90
2018-05-02T04:05:56.557Z,4.40
2018-05-02T04:06:56.433Z,4.00
2018-05-02T04:07:56.332Z,3.90
2018-05-02T04:08:56.242Z,3.50
2018-05-02T04:09:56.146Z,3.50
2018-05-02T04:10:56.088Z,3.10
2018-05-02T04:11:55.955Z,3.20
2018-05-02T04:12:55.969Z,3.10
2018-05-02T04:13:55.772Z,3.00
2018-05-02T04:14:55.672Z,2.80
2018-05-02T04:15:55.621Z,3.10
2018-05-02T04:16:55.479Z,2.60
2018-05-02T04:17:55.386Z,2.70
2018-05-02T04:18:55.291Z,2.20
2018-05-02T04:19:55.290Z,2.10
2018-05-02T04:20:55.099Z,2.50
2018-05-02T04:21:55.039Z,2.40
2018-05-02T04:22:54.910Z,2.50
2018-05-02T04:23:54.818Z,2.60
2018-05-02T04:24:54.722Z,2.50
2018-05-02T04:25:54.627Z,2.40
2018-05-02T04:26:54.670Z,2.70
2018-05-02T04:27:54.435Z,2.50
2018-05-02T04:28:54.342Z,2.30
2018-05-02T04:29:54.246Z,2.50
2018-05-02T04:30:54.151Z,2.60
2018-05-02T04:31:54.054Z,2.60
2018-05-02T04:32:54.000Z,2.40
2018-05-02T04:33:53.964Z,2.50
2018-05-02T04:34:53.768Z,2.40
2018-05-02T04:35:53.676Z,2.50
2018-05-02T04:36:53.581Z,2.40
2018-05-02T04:37:53.516Z,2.30
2018-05-02T04:38:53.388Z,2.70
2018-05-02T04:39:53.298Z,2.80
2018-05-02T04:40:53.292Z,2.80
2018-05-02T04:41:53.109Z,2.60
2018-05-02T04:42:53.046Z,2.60
2018-05-02T04:43:52.919Z,2.60
2018-05-02T04:44:52.821Z,2.40
2018-05-02T04:45:52.727Z,2.50
2018-05-02T04:46:52.633Z,2.60
2018-05-02T04:47:52.649Z,2.30
2018-05-02T04:48:52.472Z,2.30
2018-05-02T04:49:52.349Z,2.50
2018-05-02T04:50:52.252Z,2.90
2018-05-02T04:51:52.172Z,3.00
2018-05-02T04:52:52.064Z,2.50
2018-05-02T04:53:52.000Z,2.60
2018-05-02T04:54:51.969Z,2.50
2018-05-02T04:55:51.779Z,2.80
2018-05-02T04:56:51.682Z,2.80
2018-05-02T04:57:51.590Z,2.60
2018-05-02T04:58:51.524Z,2.60
2018-05-02T04:59:51.399Z,2.30
2018-05-02T05:00:51.304Z,2.80
2018-05-02T05:01:51.327Z,2.60
2018-05-02T05:02:51.117Z,2.50
2018-05-02T05:03:51.053Z,2.60
2018-05-02T05:04:50.926Z,2.80
2018-05-02T05:05:50.833Z,2.70
2018-05-02T05:06:50.734Z,3.20
2018-05-02T05:07:50.640Z,3.00
2018-05-02T05:08:50.675Z,2.90
2018-05-02T05:09:50.452Z,2.80
2018-05-02T05:10:50.357Z,2.80
2018-05-02T05:11:50.262Z,2.90
2018-05-02T05:12:50.168Z,2.90
2018-05-02T05:13:50.101Z,2.60
2018-05-02T05:14:49.979Z,2.70
2018-05-02T05:15:49.983Z,2.60
2018-05-02T05:16:49.792Z,3.00
2018-05-02T05:17:49.696Z,2.60
2018-05-02T05:18:49.632Z,2.40
2018-05-02T05:19:49.506Z,3.00
2018-05-02T05:20:49.415Z,2.90
2018-05-02T05:21:49.318Z,2.20
2018-05-02T05:22:49.335Z,1.90
2018-05-02T05:23:49.162Z,1.70
2018-05-02T05:24:49.037Z,1.50
2018-05-02T05:25:48.944Z,1.40
2018-05-02T05:26:48.849Z,1.50
2018-05-02T05:27:48.755Z,1.30
2018-05-02T05:28:48.780Z,1.50
2018-05-02T05:29:48.563Z,1.50
2018-05-02T05:30:48.469Z,1.40
2018-05-02T05:31:48.376Z,1.30
2018-05-02T05:32:48.282Z,1.10
2018-05-02T05:33:48.221Z,1.40
2018-05-02T05:34:48.093Z,1.20
2018-05-02T05:35:47.998Z,1.20
2018-05-02T05:36:47.906Z,1.40
2018-05-02T05:37:47.810Z,1.20
2018-05-02T05:38:47.747Z,1.30
2018-05-02T05:39:47.623Z,1.20
2018-05-02T05:40:47.527Z,1.30
2018-05-02T05:41:47.439Z,1.20
2018-05-02T05:42:47.341Z,1.20
2018-05-02T05:43:47.279Z,1.20
2018-05-02T05:44:47.150Z,1.40
2018-05-02T05:45:47.061Z,1.30
2018-05-02T05:46:47.018Z,1.20
2018-05-02T05:47:46.870Z,1.40
2018-05-02T05:48:46.804Z,1.40
2018-05-02T05:49:46.685Z,1.40
2018-05-02T05:50:46.586Z,1.50
2018-05-02T05:51:46.495Z,1.40
2018-05-02T05:52:46.400Z,1.50
2018-05-02T05:53:46.346Z,1.30
2018-05-02T05:54:46.213Z,1.40
2018-05-02T05:55:46.118Z,1.50
2018-05-02T05:56:46.022Z,1.60
2018-05-02T05:57:45.931Z,1.50
2018-05-02T05:58:45.838Z,1.40
2018-05-02T05:59:45.773Z,1.40
2018-05-02T06:00:45.693Z,1.30
2018-05-02T06:01:45.555Z,1.60
2018-05-02T06:02:45.461Z,1.50
2018-05-02T06:03:45.374Z,1.50
2018-05-02T06:04:45.305Z,1.40
2018-05-02T06:05:45.179Z,1.40
2018-05-02T06:06:45.115Z,1.60
2018-05-02T06:07:44.992Z,1.40
2018-05-02T06:08:44.981Z,1.50
2018-05-02T06:09:44.836Z,1.50
2018-05-02T06:10:44.711Z,1.60
2018-05-02T06:11:44.619Z,1.40
2018-05-02T06:12:44.525Z,1.50
2018-05-02T06:13:44.430Z,1.70
2018-05-02T06:14:44.368Z,1.40
2018-05-02T06:15:44.245Z,1.50
2018-05-02T06:16:44.150Z,1.60
2018-05-02T06:17:44.158Z,1.50
2018-05-02T06:18:44.025Z,1.50
2018-05-02T06:19:43.903Z,1.60
2018-05-02T06:20:43.777Z,1.60
2018-05-02T06:21:43.687Z,1.50
2018-05-02T06:22:43.592Z,1.50
2018-05-02T06:23:43.497Z,1.70
2018-05-02T06:24:43.533Z,1.50
2018-05-02T06:25:43.312Z,1.60
2018-05-02T06:26:43.218Z,1.50
2018-05-02T06:27:43.127Z,1.70
2018-05-02T06:28:43.033Z,1.60
2018-05-02T06:29:42.973Z,1.30
2018-05-02T06:30:42.850Z,1.50
2018-05-02T06:31:42.933Z,1.50
2018-05-02T06:32:42.662Z,1.60
2018-05-02T06:33:42.568Z,1.30
2018-05-02T06:34:42.506Z,1.40
2018-05-02T06:35:42.383Z,1.60
2018-05-02T06:36:42.291Z,1.50
2018-05-02T06:37:42.253Z,1.40
2018-05-02T06:38:42.206Z,1.30
2018-05-02T06:39:42.048Z,1.40
2018-05-02T06:40:41.922Z,1.30
2018-05-02T06:41:41.831Z,1.40
2018-05-02T06:42:41.737Z,1.40
2018-05-02T06:43:41.643Z,1.30
2018-05-02T06:44:41.580Z,1.50
2018-05-02T06:45:41.553Z,1.60
2018-05-02T06:46:41.371Z,1.30
2018-05-02T06:47:41.279Z,1.40
2018-05-02T06:48:41.185Z,1.10
2018-05-02T06:49:41.119Z,1.40
2018-05-02T06:50:40.996Z,1.40
2018-05-02T06:51:40.905Z,1.50
2018-05-02T06:52:40.909Z,1.50
2018-05-02T06:53:40.721Z,1.30
2018-05-02T06:54:40.736Z,1.40
2018-05-02T06:55:40.534Z,1.50
2018-05-02T06:56:40.439Z,1.30
2018-05-02T06:57:40.351Z,1.50
2018-05-02T06:58:40.257Z,1.70
2018-05-02T06:59:40.288Z,1.20
2018-05-02T07:00:40.070Z,1.50
2018-05-02T07:01:39.980Z,1.50
2018-05-02T07:02:39.884Z,1.40
2018-05-02T07:03:39.794Z,1.40
2018-05-02T07:04:39.731Z,1.40
2018-05-02T07:05:39.608Z,1.10
2018-05-02T07:06:39.610Z,1.20
2018-05-02T07:07:39.423Z,1.20
2018-05-02T07:08:39.331Z,1.20
2018-05-02T07:09:39.240Z,1.10
2018-05-02T07:10:39.173Z,1.30
2018-05-02T07:11:39.050Z,1.20
2018-05-02T07:12:38.958Z,1.30
2018-05-02T07:13:39.069Z,1.00
2018-05-02T07:14:38.772Z,1.20
2018-05-02T07:15:38.713Z,1.20
2018-05-02T07:16:38.588Z,1.40
2018-05-02T07:17:38.497Z,1.10
2018-05-02T07:18:38.401Z,1.40
2018-05-02T07:19:38.313Z,1.30
2018-05-02T07:20:38.259Z,1.30
2018-05-02T07:21:38.127Z,1.30
2018-05-02T07:22:38.033Z,1.30
2018-05-02T07:23:37.940Z,1.20
2018-05-02T07:24:37.868Z,1.30
2018-05-02T07:25:37.791Z,1.20
2018-05-02T07:26:37.665Z,1.20
2018-05-02T07:27:37.574Z,1.30
2018-05-02T07:28:37.484Z,1.30
2018-05-02T07:29:37.390Z,1.10
2018-05-02T07:30:37.325Z,1.10
2018-05-02T07:31:37.207Z,1.20
2018-05-02T07:32:37.273Z,1.30
2018-05-02T07:33:37.028Z,1.20
2018-05-02T07:34:36.947Z,1.30
2018-05-02T07:35:36.869Z,1.60
2018-05-02T07:36:36.747Z,2.10
2018-05-02T07:37:36.654Z,2.30
2018-05-02T07:38:36.563Z,1.80
2018-05-02T07:39:36.473Z,2.10
2018-05-02T07:40:36.412Z,2.20
2018-05-02T07:41:36.292Z,1.70
2018-05-02T07:42:36.199Z,1.80
2018-05-02T07:43:36.108Z,1.60
2018-05-02T07:44:36.016Z,1.80
2018-05-02T07:45:35.954Z,1.60
2018-05-02T07:46:35.834Z,1.60
2018-05-02T07:47:35.743Z,1.80
2018-05-02T07:48:35.706Z,1.80
2018-05-02T07:49:35.560Z,1.60
2018-05-02T07:50:35.499Z,1.60
2018-05-02T07:51:35.381Z,1.70
2018-05-02T07:52:35.287Z,1.80
2018-05-02T07:53:35.199Z,1.90
2018-05-02T07:54:35.104Z,2.00
2018-05-02T07:55:35.045Z,1.70
2018-05-02T07:56:35.015Z,1.90
2018-05-02T07:57:34.833Z,1.80
2018-05-02T07:58:34.742Z,1.70
2018-05-02T07:59:34.653Z,2.20
2018-05-02T08:00:34.592Z,1.80
2018-05-02T08:01:34.470Z,2.10
2018-05-02T08:02:34.381Z,1.90
2018-05-02T08:03:34.292Z,1.90
2018-05-02T08:04:34.198Z,2.00
2018-05-02T08:05:34.141Z,2.00
2018-05-02T08:06:34.014Z,2.20
2018-05-02T08:07:33.923Z,2.20
2018-05-02T08:08:33.840Z,2.20
2018-05-02T08:09:33.746Z,1.90
2018-05-02T08:10:33.685Z,1.80
2018-05-02T08:11:33.563Z,2.40
2018-05-02T08:12:33.473Z,1.80
2018-05-02T08:13:33.384Z,1.80
2018-05-02T08:14:33.340Z,1.60
2018-05-02T08:15:33.345Z,1.60
2018-05-02T08:16:33.147Z,1.60
2018-05-02T08:17:33.024Z,7.80
2018-05-02T08:18:32.931Z,7.30
2018-05-02T08:19:32.842Z,5.20
2018-05-02T08:20:32.782Z,3.40
2018-05-02T08:21:32.673Z,5.80
2018-05-02T08:22:32.665Z,4.30
2018-05-02T08:23:32.480Z,2.60
2018-05-02T08:24:32.392Z,2.00
2018-05-02T08:25:32.306Z,5.10
2018-05-02T08:26:32.244Z,5.80
2018-05-02T08:27:32.124Z,3.30
2018-05-02T08:28:32.035Z,1.80
2018-05-02T08:29:32.037Z,2.10
2018-05-02T08:30:31.854Z,2.20
2018-05-02T08:31:31.797Z,2.10
2018-05-02T08:32:31.674Z,1.90
2018-05-02T08:33:31.589Z,1.70
2018-05-02T08:34:31.496Z,1.80
2018-05-02T08:35:31.407Z,1.90
2018-05-02T08:36:31.459Z,1.90
2018-05-02T08:37:31.224Z,1.80
2018-05-02T08:38:31.137Z,1.70
2018-05-02T08:39:31.049Z,1.80
2018-05-02T08:40:30.957Z,1.70
2018-05-02T08:41:30.901Z,1.80
2018-05-02T08:42:30.778Z,1.80
2018-05-02T08:43:30.787Z,1.50
2018-05-02T08:44:30.600Z,1.50
2018-05-02T08:45:30.513Z,1.50
2018-05-02T08:46:30.451Z,1.50
2018-05-02T08:47:30.350Z,1.60
2018-05-02T08:48:30.243Z,1.60
2018-05-02T08:49:30.153Z,1.60
2018-05-02T08:50:30.161Z,1.60
2018-05-02T08:51:30.009Z,1.80
2018-05-02T08:52:29.888Z,1.60
2018-05-02T08:53:29.802Z,1.60
2018-05-02T08:54:29.707Z,1.60
2018-05-02T08:55:29.617Z,1.60
2018-05-02T08:56:29.560Z,1.40
2018-05-02T08:57:29.599Z,1.90
2018-05-02T08:58:29.353Z,1.50
2018-05-02T08:59:29.265Z,1.80
2018-05-02T09:00:29.177Z,1.60
2018-05-02T09:01:29.122Z,1.40
2018-05-02T09:02:28.999Z,1.70
2018-05-02T09:03:28.913Z,1.50
2018-05-02T09:04:28.922Z,1.80
2018-05-02T09:05:28.735Z,1.40
2018-05-02T09:06:28.681Z,1.60
2018-05-02T09:07:28.559Z,1.50
2018-05-02T09:08:28.472Z,1.60
2018-05-02T09:09:28.384Z,1.60
2018-05-02T09:10:28.300Z,1.60
2018-05-02T09:11:28.239Z,1.60
2018-05-02T09:12:28.125Z,1.60
2018-05-02T09:13:28.034Z,1.50
2018-05-02T09:14:27.948Z,1.60
2018-05-02T09:15:27.873Z,1.60
2018-05-02T09:16:27.810Z,1.40
2018-05-02T09:17:27.685Z,1.70
2018-05-02T09:18:27.601Z,1.70
2018-05-02T09:19:27.510Z,1.40
2018-05-02T09:20:27.422Z,1.40
2018-05-02T09:21:27.369Z,1.50
2018-05-02T09:22:27.251Z,1.30
2018-05-02T09:23:27.164Z,1.20
2018-05-02T09:24:27.075Z,1.10
2018-05-02T09:25:26.991Z,1.30
2018-05-02T09:26:26.932Z,1.10
2018-05-02T09:27:26.814Z,1.10
2018-05-02T09:28:26.729Z,1.20
2018-05-02T09:29:26.641Z,1.30
2018-05-02T09:30:26.556Z,1.20
2018-05-02T09:31:26.501Z,1.40
2018-05-02T09:32:26.381Z,1.20
2018-05-02T09:33:26.296Z,1.30
2018-05-02T09:34:26.210Z,1.20
2018-05-02T09:35:26.128Z,1.30
2018-05-02T09:36:26.099Z,1.30
2018-05-02T09:37:25.955Z,1.40
2018-05-02T09:38:25.866Z,1.20
2018-05-02T09:39:25.780Z,1.20
2018-05-02T09:40:25.695Z,1.20
2018-05-02T09:41:25.612Z,1.20
2018-05-02T09:42:25.555Z,1.30
2018-05-02T09:43:25.438Z,1.50
2018-05-02T09:44:25.355Z,1.40
2018-05-02T09:45:25.268Z,1.50
2018-05-02T09:46:25.185Z,1.30
2018-05-02T09:47:25.128Z,1.30
2018-05-02T09:48:25.021Z,1.30
2018-05-02T09:49:24.951Z,1.50
2018-05-02T09:50:24.842Z,1.40
2018-05-02T09:51:24.757Z,1.30
2018-05-02T09:52:24.714Z,1.50
2018-05-02T09:53:24.588Z,1.30
2018-05-02T09:54:24.502Z,1.40
2018-05-02T09:55:24.420Z,1.70
2018-05-02T09:56:24.335Z,1.70
2018-05-02T09:57:24.284Z,1.80
2018-05-02T09:58:24.164Z,1.30
2018-05-02T09:59:24.080Z,1.30
2018-05-02T10:00:24.002Z,1.40
2018-05-02T10:01:23.913Z,1.50
2018-05-02T10:02:23.925Z,1.40
2018-05-02T10:03:23.761Z,1.80
2018-05-02T10:04:23.695Z,1.60
2018-05-02T10:05:23.579Z,2.10
2018-05-02T10:06:23.493Z,1.90
2018-05-02T10:07:23.631Z,1.90
2018-05-02T10:08:23.326Z,2.00
2018-05-02T10:09:23.239Z,2.10
2018-05-02T10:10:23.159Z,1.90
2018-05-02T10:11:23.077Z,1.80
2018-05-02T10:12:23.061Z,1.80
2018-05-02T10:13:22.908Z,1.80
2018-05-02T10:14:22.828Z,1.70
2018-05-02T10:15:22.741Z,2.10
2018-05-02T10:16:22.659Z,2.10
2018-05-02T10:17:22.607Z,1.90
2018-05-02T10:18:22.503Z,1.80
2018-05-02T10:19:22.411Z,1.90
2018-05-02T10:20:22.327Z,1.60
2018-05-02T10:21:22.246Z,2.00
2018-05-02T10:22:22.193Z,2.60
2018-05-02T10:23:22.080Z,2.10
2018-05-02T10:24:22.005Z,2.10
2018-05-02T10:25:21.916Z,2.60
2018-05-02T10:26:21.873Z,2.90
2018-05-02T10:27:21.784Z,2.50
2018-05-02T10:28:21.764Z,2.20
2018-05-02T10:29:21.591Z,2.40
2018-05-02T10:30:21.507Z,2.30
2018-05-02T10:31:21.431Z,2.30
2018-05-02T10:32:21.380Z,2.90
2018-05-02T10:33:21.265Z,2.70
2018-05-02T10:34:21.183Z,2.80
2018-05-02T10:35:21.192Z,2.90
2018-05-02T10:36:21.018Z,3.60
2018-05-02T10:37:20.969Z,4.00
2018-05-02T10:38:20.858Z,4.80
2018-05-02T10:39:20.776Z,3.90
2018-05-02T10:40:20.690Z,4.20
2018-05-02T10:41:20.615Z,3.70
2018-05-02T10:42:20.565Z,4.20
2018-05-02T10:43:20.452Z,3.60
2018-05-02T10:44:20.367Z,3.50
2018-05-02T10:45:20.287Z,3.60
2018-05-02T10:46:20.206Z,3.30
2018-05-02T10:47:20.153Z,3.00
2018-05-02T10:48:20.044Z,2.80
2018-05-02T10:49:20.073Z,2.80
2018-05-02T10:50:19.928Z,3.80
2018-05-02T10:51:19.802Z,3.30
2018-05-02T10:52:19.748Z,3.30
2018-05-02T10:53:19.640Z,3.10
2018-05-02T10:54:19.555Z,3.50
2018-05-02T10:55:19.474Z,3.90
2018-05-02T10:56:19.485Z,3.80
2018-05-02T10:57:19.315Z,4.10
2018-05-02T10:58:19.265Z,4.40
2018-05-02T10:59:19.152Z,5.70
2018-05-02T11:00:19.092Z,5.60
2018-05-02T11:01:18.991Z,5.10
2018-05-02T11:02:18.914Z,3.60
2018-05-02T11:03:18.954Z,4.20
2018-05-02T11:04:18.748Z,3.40
2018-05-02T11:05:18.667Z,3.60
2018-05-02T11:06:18.588Z,3.30
2018-05-02T11:07:18.509Z,3.30
2018-05-02T11:08:18.514Z,3.10
2018-05-02T11:09:18.441Z,3.00
2018-05-02T11:10:18.265Z,3.30
2018-05-02T11:11:18.185Z,3.00
2018-05-02T11:12:18.118Z,2.80
2018-05-02T11:13:18.060Z,2.80
2018-05-02T11:14:17.946Z,2.60
2018-05-02T11:15:17.866Z,2.50
2018-05-02T11:16:17.786Z,2.70
2018-05-02T11:17:17.704Z,2.60
2018-05-02T11:18:17.655Z,2.80
2018-05-02T11:19:17.544Z,2.40
2018-05-02T11:20:17.465Z,2.60
2018-05-02T11:21:17.386Z,2.90
2018-05-02T11:22:17.308Z,2.90
2018-05-02T11:23:17.257Z,2.70
2018-05-02T11:24:17.142Z,2.90
2018-05-02T11:25:17.064Z,2.90
2018-05-02T11:26:16.984Z,2.70
2018-05-02T11:27:16.904Z,3.40
2018-05-02T11:28:16.928Z,3.40
2018-05-02T11:29:16.741Z,3.30
2018-05-02T11:30:16.661Z,2.90
2018-05-02T11:31:16.581Z,3.10
2018-05-02T11:32:16.499Z,3.60
2018-05-02T11:33:16.451Z,3.30
2018-05-02T11:34:16.338Z,3.40
2018-05-02T11:35:16.259Z,3.40
2018-05-02T11:36:16.175Z,3.50
2018-05-02T11:37:16.098Z,3.10
2018-05-02T11:38:16.062Z,3.40
2018-05-02T11:39:15.930Z,3.50
2018-05-02T11:40:15.848Z,3.40
2018-05-02T11:41:15.767Z,3.00
2018-05-02T11:42:15.685Z,3.30
2018-05-02T11:43:15.635Z,3.10
2018-05-02T11:44:15.589Z,3.30
2018-05-02T11:45:15.439Z,3.50
2018-05-02T11:46:15.444Z,3.30
2018-05-02T11:47:15.276Z,3.40
2018-05-02T11:48:15.190Z,3.50
2018-05-02T11:49:15.138Z,3.40
2018-05-02T11:50:15.025Z,3.30
2018-05-02T11:51:14.943Z,3.10
2018-05-02T11:52:14.864Z,3.00
2018-05-02T11:53:14.780Z,2.90
2018-05-02T11:54:14.732Z,3.20
2018-05-02T11:55:14.617Z,3.10
2018-05-02T11:56:14.543Z,3.40
2018-05-02T11:57:14.454Z,3.10
2018-05-02T11:58:14.387Z,3.00
2018-05-02T11:59:14.319Z,3.30
2018-05-02T12:00:14.208Z,3.20
2018-05-02T12:01:14.124Z,3.30
2018-05-02T12:02:14.042Z,3.10
2018-05-02T12:03:14.550Z,3.20
2018-05-02T12:04:13.909Z,3.00
2018-05-02T12:05:13.891Z,2.80
2018-05-02T12:06:13.713Z,2.80
2018-05-02T12:07:13.630Z,3.10
2018-05-02T12:08:13.550Z,2.50
2018-05-02T12:09:13.499Z,2.50
2018-05-02T12:10:13.397Z,2.50
2018-05-02T12:11:13.300Z,3.10
2018-05-02T12:12:13.220Z,3.80
2018-05-02T12:13:13.139Z,3.60
2018-05-02T12:14:13.084Z,3.80
2018-05-02T12:15:12.971Z,4.10
2018-05-02T12:16:12.890Z,4.10
2018-05-02T12:17:12.805Z,3.70
2018-05-02T12:18:12.723Z,3.30
2018-05-02T12:19:12.765Z,3.70
2018-05-02T12:20:12.558Z,3.40
2018-05-02T12:21:12.476Z,3.50
2018-05-02T12:22:12.393Z,3.50
2018-05-02T12:23:12.307Z,3.00
2018-05-02T12:24:12.252Z,2.60
2018-05-02T12:25:12.141Z,2.30
2018-05-02T12:26:12.149Z,2.50
2018-05-02T12:27:11.976Z,2.20
2018-05-02T12:28:11.891Z,2.60
2018-05-02T12:29:11.844Z,2.40
2018-05-02T12:30:11.725Z,2.40
2018-05-02T12:31:11.639Z,2.50
2018-05-02T12:32:11.565Z,2.20
2018-05-02T12:33:11.614Z,2.40
2018-05-02T12:34:11.391Z,2.50
2018-05-02T12:35:11.336Z,2.30
2018-05-02T12:36:11.222Z,2.60
2018-05-02T12:37:11.141Z,2.60
2018-05-02T12:38:11.054Z,2.70
2018-05-02T12:39:10.971Z,2.60
2018-05-02T12:40:11.009Z,2.60
2018-05-02T12:41:10.799Z,2.70
2018-05-02T12:42:10.716Z,2.80
2018-05-02T12:43:10.630Z,2.60
2018-05-02T12:44:10.550Z,2.80
2018-05-02T12:45:10.496Z,3.00
2018-05-02T12:46:10.382Z,2.50
2018-05-02T12:47:10.393Z,2.70
2018-05-02T12:48:10.215Z,2.30
2018-05-02T12:49:10.129Z,2.80
2018-05-02T12:50:10.073Z,2.80
2018-05-02T12:51:10.031Z,3.00
2018-05-02T12:52:09.876Z,3.00
2018-05-02T12:53:09.792Z,3.00
2018-05-02T12:54:09.823Z,3.40
2018-05-02T12:55:09.656Z,3.50
2018-05-02T12:56:09.589Z,3.60
2018-05-02T12:57:09.467Z,3.80
2018-05-02T12:58:09.373Z,4.00
2018-05-02T12:59:09.289Z,3.80
2018-05-02T13:00:09.237Z,3.80
2018-05-02T13:01:09.218Z,4.40
2018-05-02T13:02:09.036Z,4.00
2018-05-02T13:03:08.952Z,4.20
2018-05-02T13:04:08.872Z,3.50
2018-05-02T13:05:08.817Z,4.00
2018-05-02T13:06:08.704Z,4.00
2018-05-02T13:07:08.618Z,4.20
2018-05-02T13:08:08.667Z,3.90
2018-05-02T13:09:08.450Z,3.50
2018-05-02T13:10:08.398Z,3.80
2018-05-02T13:11:08.282Z,3.60
2018-05-02T13:12:08.197Z,3.80
2018-05-02T13:13:08.113Z,4.10
2018-05-02T13:14:08.027Z,4.50
2018-05-02T13:15:07.975Z,4.30
2018-05-02T13:16:07.858Z,4.30
2018-05-02T13:17:07.774Z,4.30